sensor_id;sensor_type;location;lat;lon;timestamp;pressure;altitude;pressure_sealevel;temperature;humidity
2188;BME280;1100;52.014;8.540;2022-10-13T00:00:45;100590.41;;;6.99;78.00
2188;BME280;1100;52.014;8.540;2022-10-13T00:03:11;100594.00;;;6.96;77.83
2188;BME280;1100;52.014;8.540;2022-10-13T00:05:49;100597.56;;;6.93;78.14
2188;BME280;1100;52.014;8.540;2022-10-13T00:08:18;100592.41;;;6.95;78.13
2188;BME280;1100;52.014;8.540;2022-10-13T00:10:44;100599.50;;;7.00;78.28
2188;BME280;1100;52.014;8.540;2022-10-13T00:13:10;100598.31;;;7.04;78.37
2188;BME280;1100;52.014;8.540;2022-10-13T00:15:41;100601.38;;;7.17;78.44
2188;BME280;1100;52.014;8.540;2022-10-13T00:18:07;100604.53;;;7.23;78.50
2188;BME280;1100;52.014;8.540;2022-10-13T00:20:33;100593.44;;;7.27;78.58
2188;BME280;1100;52.014;8.540;2022-10-13T00:22:59;100588.69;;;7.31;78.45
2188;BME280;1100;52.014;8.540;2022-10-13T00:25:24;100584.69;;;7.35;78.69
2188;BME280;1100;52.014;8.540;2022-10-13T00:27:50;100585.06;;;7.38;78.58
2188;BME280;1100;52.014;8.540;2022-10-13T00:30:15;100591.75;;;7.44;78.72
2188;BME280;1100;52.014;8.540;2022-10-13T00:32:40;100594.09;;;7.49;78.59
2188;BME280;1100;52.014;8.540;2022-10-13T00:35:06;100585.38;;;7.51;78.60
2188;BME280;1100;52.014;8.540;2022-10-13T00:37:31;100585.38;;;7.54;78.53
2188;BME280;1100;52.014;8.540;2022-10-13T00:39:57;100578.25;;;7.53;78.36
2188;BME280;1100;52.014;8.540;2022-10-13T00:42:22;100586.59;;;7.50;78.33
2188;BME280;1100;52.014;8.540;2022-10-13T00:47:32;100587.00;;;7.44;78.32
2188;BME280;1100;52.014;8.540;2022-10-13T00:49:59;100586.63;;;7.42;78.61
2188;BME280;1100;52.014;8.540;2022-10-13T00:52:25;100589.38;;;7.46;78.49
2188;BME280;1100;52.014;8.540;2022-10-13T00:54:54;100597.66;;;7.50;78.81
2188;BME280;1100;52.014;8.540;2022-10-13T00:57:20;100595.66;;;7.50;78.54
2188;BME280;1100;52.014;8.540;2022-10-13T00:59:46;100589.31;;;7.53;78.47
2188;BME280;1100;52.014;8.540;2022-10-13T01:02:11;100579.03;;;7.57;78.83
2188;BME280;1100;52.014;8.540;2022-10-13T01:04:45;100582.94;;;7.64;78.85
2188;BME280;1100;52.014;8.540;2022-10-13T01:07:14;100578.97;;;7.65;78.92
2188;BME280;1100;52.014;8.540;2022-10-13T01:09:40;100572.63;;;7.68;78.64
2188;BME280;1100;52.014;8.540;2022-10-13T01:17:46;100565.88;;;7.69;78.78
2188;BME280;1100;52.014;8.540;2022-10-13T01:26:01;100558.69;;;7.79;78.98
2188;BME280;1100;52.014;8.540;2022-10-13T01:28:54;100545.59;;;7.83;78.83
2188;BME280;1100;52.014;8.540;2022-10-13T01:39:26;100545.56;;;7.87;78.92
2188;BME280;1100;52.014;8.540;2022-10-13T01:42:00;100542.06;;;7.82;78.64
2188;BME280;1100;52.014;8.540;2022-10-13T01:44:32;100544.06;;;7.78;78.74
2188;BME280;1100;52.014;8.540;2022-10-13T01:47:00;100532.94;;;7.85;78.88
2188;BME280;1100;52.014;8.540;2022-10-13T01:49:30;100523.84;;;7.85;79.03
2188;BME280;1100;52.014;8.540;2022-10-13T01:52:01;100522.69;;;7.82;78.81
2188;BME280;1100;52.014;8.540;2022-10-13T01:54:27;100528.25;;;7.79;78.65
2188;BME280;1100;52.014;8.540;2022-10-13T01:56:54;100522.72;;;7.75;78.85
2188;BME280;1100;52.014;8.540;2022-10-13T01:59:21;100525.97;;;7.70;78.75
2188;BME280;1100;52.014;8.540;2022-10-13T02:04:24;100523.63;;;7.65;79.05
2188;BME280;1100;52.014;8.540;2022-10-13T02:12:54;100515.63;;;7.74;79.04
2188;BME280;1100;52.014;8.540;2022-10-13T02:15:26;100508.78;;;7.86;79.44
2188;BME280;1100;52.014;8.540;2022-10-13T02:17:53;100502.03;;;7.91;79.22
2188;BME280;1100;52.014;8.540;2022-10-13T02:20:19;100499.66;;;7.93;79.17
2188;BME280;1100;52.014;8.540;2022-10-13T02:22:50;100498.09;;;7.92;79.14
2188;BME280;1100;52.014;8.540;2022-10-13T02:25:18;100497.69;;;7.90;79.21
2188;BME280;1100;52.014;8.540;2022-10-13T02:27:43;100498.09;;;7.88;78.95
2188;BME280;1100;52.014;8.540;2022-10-13T02:30:19;100498.91;;;7.89;79.09
2188;BME280;1100;52.014;8.540;2022-10-13T02:32:44;100498.53;;;7.87;79.08
2188;BME280;1100;52.014;8.540;2022-10-13T02:35:10;100497.78;;;7.82;79.15
2188;BME280;1100;52.014;8.540;2022-10-13T02:37:35;100498.94;;;7.81;79.31
2188;BME280;1100;52.014;8.540;2022-10-13T02:40:00;100504.50;;;7.81;79.27
2188;BME280;1100;52.014;8.540;2022-10-13T02:42:26;100500.56;;;7.79;79.20
2188;BME280;1100;52.014;8.540;2022-10-13T02:44:51;100497.81;;;7.79;79.32
2188;BME280;1100;52.014;8.540;2022-10-13T02:47:17;100493.81;;;7.80;79.37
2188;BME280;1100;52.014;8.540;2022-10-13T02:49:42;100496.53;;;7.87;79.64
2188;BME280;1100;52.014;8.540;2022-10-13T02:52:07;100486.94;;;7.95;79.54
2188;BME280;1100;52.014;8.540;2022-10-13T02:54:33;100497.19;;;8.02;79.71
2188;BME280;1100;52.014;8.540;2022-10-13T02:56:58;100499.09;;;8.09;79.68
2188;BME280;1100;52.014;8.540;2022-10-13T02:59:23;100489.16;;;8.12;79.50
2188;BME280;1100;52.014;8.540;2022-10-13T03:01:48;100492.69;;;8.16;79.68
2188;BME280;1100;52.014;8.540;2022-10-13T03:04:14;100494.22;;;8.20;79.61
2188;BME280;1100;52.014;8.540;2022-10-13T03:06:39;100493.00;;;8.25;79.67
2188;BME280;1100;52.014;8.540;2022-10-13T03:09:04;100498.88;;;8.27;79.85
2188;BME280;1100;52.014;8.540;2022-10-13T03:11:30;100492.94;;;8.29;79.61
2188;BME280;1100;52.014;8.540;2022-10-13T03:13:55;100492.16;;;8.28;79.68
2188;BME280;1100;52.014;8.540;2022-10-13T03:16:21;100488.59;;;8.28;79.63
2188;BME280;1100;52.014;8.540;2022-10-13T03:18:46;100488.59;;;8.28;79.70
2188;BME280;1100;52.014;8.540;2022-10-13T03:21:11;100493.72;;;8.29;79.66
2188;BME280;1100;52.014;8.540;2022-10-13T03:23:37;100500.41;;;8.32;79.84
2188;BME280;1100;52.014;8.540;2022-10-13T03:26:02;100496.81;;;8.35;79.52
2188;BME280;1100;52.014;8.540;2022-10-13T03:28:28;100496.00;;;8.38;79.66
2188;BME280;1100;52.014;8.540;2022-10-13T03:31:02;100501.53;;;8.38;79.50
2188;BME280;1100;52.014;8.540;2022-10-13T03:33:28;100499.94;;;8.41;79.72
2188;BME280;1100;52.014;8.540;2022-10-13T03:35:57;100495.53;;;8.43;79.74
2188;BME280;1100;52.014;8.540;2022-10-13T03:38:22;100499.84;;;8.48;79.59
2188;BME280;1100;52.014;8.540;2022-10-13T03:40:48;100500.63;;;8.48;79.47
2188;BME280;1100;52.014;8.540;2022-10-13T03:43:14;100497.06;;;8.48;79.52
2188;BME280;1100;52.014;8.540;2022-10-13T03:45:40;100495.50;;;8.47;79.67
2188;BME280;1100;52.014;8.540;2022-10-13T03:48:05;100503.00;;;8.50;79.57
2188;BME280;1100;52.014;8.540;2022-10-13T03:50:31;100494.69;;;8.50;79.62
2188;BME280;1100;52.014;8.540;2022-10-13T03:52:56;100489.91;;;8.51;79.62
2188;BME280;1100;52.014;8.540;2022-10-13T03:55:22;100490.69;;;8.51;79.55
2188;BME280;1100;52.014;8.540;2022-10-13T03:57:47;100489.91;;;8.51;79.47
2188;BME280;1100;52.014;8.540;2022-10-13T04:00:13;100490.28;;;8.53;79.41
2188;BME280;1100;52.014;8.540;2022-10-13T04:02:39;100487.94;;;8.51;79.50
2188;BME280;1100;52.014;8.540;2022-10-13T04:05:04;100487.13;;;8.54;79.47
2188;BME280;1100;52.014;8.540;2022-10-13T04:07:30;100484.34;;;8.54;79.63
2188;BME280;1100;52.014;8.540;2022-10-13T04:09:56;100485.16;;;8.55;79.59
2188;BME280;1100;52.014;8.540;2022-10-13T04:12:21;100481.97;;;8.56;79.62
2188;BME280;1100;52.014;8.540;2022-10-13T04:14:46;100481.13;;;8.59;79.63
2188;BME280;1100;52.014;8.540;2022-10-13T04:17:11;100477.16;;;8.60;79.66
2188;BME280;1100;52.014;8.540;2022-10-13T04:19:37;100478.38;;;8.59;79.77
2188;BME280;1100;52.014;8.540;2022-10-13T04:22:03;100462.91;;;8.58;79.35
2188;BME280;1100;52.014;8.540;2022-10-13T04:24:28;100469.63;;;8.61;79.52
2188;BME280;1100;52.014;8.540;2022-10-13T04:26:53;100466.84;;;8.61;79.67
2188;BME280;1100;52.014;8.540;2022-10-13T04:29:19;100468.81;;;8.64;79.70
2188;BME280;1100;52.014;8.540;2022-10-13T04:31:44;100463.59;;;8.66;79.62
2188;BME280;1100;52.014;8.540;2022-10-13T04:34:10;100471.50;;;8.68;79.62
2188;BME280;1100;52.014;8.540;2022-10-13T04:36:36;100477.81;;;8.72;79.53
2188;BME280;1100;52.014;8.540;2022-10-13T04:39:01;100469.00;;;8.77;79.90
2188;BME280;1100;52.014;8.540;2022-10-13T04:41:27;100474.09;;;8.82;79.81
2188;BME280;1100;52.014;8.540;2022-10-13T04:43:52;100462.88;;;8.90;79.87
2188;BME280;1100;52.014;8.540;2022-10-13T04:46:21;100457.72;;;8.92;79.82
2188;BME280;1100;52.014;8.540;2022-10-13T04:48:47;100460.03;;;8.97;79.78
2188;BME280;1100;52.014;8.540;2022-10-13T04:51:15;100465.16;;;8.99;79.62
2188;BME280;1100;52.014;8.540;2022-10-13T04:53:42;100452.81;;;9.03;79.79
2188;BME280;1100;52.014;8.540;2022-10-13T04:56:10;100459.44;;;9.09;79.74
2188;BME280;1100;52.014;8.540;2022-10-13T04:58:36;100454.25;;;9.12;79.89
2188;BME280;1100;52.014;8.540;2022-10-13T05:01:04;100449.06;;;9.14;79.70
2188;BME280;1100;52.014;8.540;2022-10-13T05:03:30;100446.72;;;9.12;79.50
2188;BME280;1100;52.014;8.540;2022-10-13T05:05:56;100443.16;;;9.12;79.71
2188;BME280;1100;52.014;8.540;2022-10-13T05:08:21;100439.59;;;9.11;79.57
2188;BME280;1100;52.014;8.540;2022-10-13T05:11:00;100440.38;;;9.12;79.63
2188;BME280;1100;52.014;8.540;2022-10-13T05:13:27;100442.31;;;9.15;79.90
2188;BME280;1100;52.014;8.540;2022-10-13T05:15:53;100433.50;;;9.20;79.54
2188;BME280;1100;52.014;8.540;2022-10-13T05:18:18;100420.31;;;9.28;79.78
2188;BME280;1100;52.014;8.540;2022-10-13T05:20:43;100425.38;;;9.33;79.89
2188;BME280;1100;52.014;8.540;2022-10-13T05:23:09;100428.88;;;9.37;79.79
2188;BME280;1100;52.014;8.540;2022-10-13T05:25:35;100432.38;;;9.41;79.71
2188;BME280;1100;52.014;8.540;2022-10-13T05:28:02;100425.56;;;9.46;79.81
2188;BME280;1100;52.014;8.540;2022-10-13T05:30:28;100417.59;;;9.48;79.71
2188;BME280;1100;52.014;8.540;2022-10-13T05:32:53;100416.03;;;9.47;79.63
2188;BME280;1100;52.014;8.540;2022-10-13T05:35:18;100415.66;;;9.45;79.68
2188;BME280;1100;52.014;8.540;2022-10-13T05:37:43;100417.31;;;9.42;79.57
2188;BME280;1100;52.014;8.540;2022-10-13T05:40:09;100423.28;;;9.41;79.53
2188;BME280;1100;52.014;8.540;2022-10-13T05:42:35;100416.16;;;9.40;79.69
2188;BME280;1100;52.014;8.540;2022-10-13T05:45:01;100412.97;;;9.41;79.71
2188;BME280;1100;52.014;8.540;2022-10-13T05:47:26;100409.78;;;9.43;79.72
2188;BME280;1100;52.014;8.540;2022-10-13T05:49:53;100406.19;;;9.42;79.62
2188;BME280;1100;52.014;8.540;2022-10-13T05:52:20;100415.31;;;9.43;79.75
2188;BME280;1100;52.014;8.540;2022-10-13T05:54:51;100423.22;;;9.44;79.56
2188;BME280;1100;52.014;8.540;2022-10-13T05:57:21;100413.25;;;9.47;79.76
2188;BME280;1100;52.014;8.540;2022-10-13T05:59:52;100411.19;;;9.51;79.67
2188;BME280;1100;52.014;8.540;2022-10-13T06:02:21;100417.91;;;9.54;79.63
2188;BME280;1100;52.014;8.540;2022-10-13T06:04:51;100424.22;;;9.54;79.62
2188;BME280;1100;52.014;8.540;2022-10-13T06:07:17;100413.53;;;9.53;79.61
2188;BME280;1100;52.014;8.540;2022-10-13T06:09:43;100413.97;;;9.51;79.47
2188;BME280;1100;52.014;8.540;2022-10-13T06:12:09;100419.50;;;9.51;79.76
2188;BME280;1100;52.014;8.540;2022-10-13T06:14:34;100420.59;;;9.57;79.81
2188;BME280;1100;52.014;8.540;2022-10-13T06:16:59;100416.63;;;9.58;79.60
2188;BME280;1100;52.014;8.540;2022-10-13T06:19:25;100412.63;;;9.59;79.67
2188;BME280;1100;52.014;8.540;2022-10-13T06:21:50;100417.34;;;9.63;79.90
2188;BME280;1100;52.014;8.540;2022-10-13T06:24:16;100411.31;;;9.68;79.74
2188;BME280;1100;52.014;8.540;2022-10-13T06:26:42;100407.69;;;9.71;79.58
2188;BME280;1100;52.014;8.540;2022-10-13T06:29:07;100409.25;;;9.72;79.67
2188;BME280;1100;52.014;8.540;2022-10-13T06:31:32;100416.28;;;9.77;79.74
2188;BME280;1100;52.014;8.540;2022-10-13T06:33:58;100410.31;;;9.78;79.58
2188;BME280;1100;52.014;8.540;2022-10-13T06:36:24;100408.75;;;9.77;79.64
2188;BME280;1100;52.014;8.540;2022-10-13T06:38:49;100401.94;;;9.82;79.60
2188;BME280;1100;52.014;8.540;2022-10-13T06:41:15;100403.47;;;9.83;79.22
2188;BME280;1100;52.014;8.540;2022-10-13T06:43:40;100382.91;;;9.80;79.53
2188;BME280;1100;52.014;8.540;2022-10-13T06:46:06;100393.22;;;9.80;79.56
2188;BME280;1100;52.014;8.540;2022-10-13T06:48:31;100403.47;;;9.83;79.78
2188;BME280;1100;52.014;8.540;2022-10-13T06:51:08;100395.44;;;9.89;79.60
2188;BME280;1100;52.014;8.540;2022-10-13T06:53:34;100407.31;;;9.89;79.44
2188;BME280;1100;52.014;8.540;2022-10-13T06:56:01;100398.19;;;9.89;79.62
2188;BME280;1100;52.014;8.540;2022-10-13T06:58:27;100400.97;;;9.89;79.48
2188;BME280;1100;52.014;8.540;2022-10-13T07:00:53;100396.66;;;9.88;79.54
2188;BME280;1100;52.014;8.540;2022-10-13T07:03:18;100395.84;;;9.87;79.56
2188;BME280;1100;52.014;8.540;2022-10-13T07:05:44;100385.16;;;9.85;79.45
2188;BME280;1100;52.014;8.540;2022-10-13T07:08:09;100380.00;;;9.88;79.41
2188;BME280;1100;52.014;8.540;2022-10-13T07:10:36;100379.56;;;9.89;79.47
2188;BME280;1100;52.014;8.540;2022-10-13T07:13:02;100387.47;;;9.91;79.55
2188;BME280;1100;52.014;8.540;2022-10-13T07:15:27;100376.72;;;9.93;79.47
2188;BME280;1100;52.014;8.540;2022-10-13T07:17:53;100377.84;;;9.95;79.72
2188;BME280;1100;52.014;8.540;2022-10-13T07:20:20;100390.44;;;10.00;79.64
2188;BME280;1100;52.014;8.540;2022-10-13T07:22:46;100382.81;;;10.04;79.42
2188;BME280;1100;52.014;8.540;2022-10-13T07:25:11;100388.75;;;10.06;79.41
2188;BME280;1100;52.014;8.540;2022-10-13T07:27:36;100391.88;;;10.08;79.54
2188;BME280;1100;52.014;8.540;2022-10-13T07:30:05;100386.66;;;10.10;79.51
2188;BME280;1100;52.014;8.540;2022-10-13T07:32:31;100392.56;;;10.13;79.42
2188;BME280;1100;52.014;8.540;2022-10-13T07:34:56;100388.50;;;10.17;79.28
2188;BME280;1100;52.014;8.540;2022-10-13T07:37:22;100390.88;;;10.19;79.38
2188;BME280;1100;52.014;8.540;2022-10-13T07:39:47;100381.59;;;10.26;79.46
2188;BME280;1100;52.014;8.540;2022-10-13T07:42:12;100379.44;;;10.33;79.37
2188;BME280;1100;52.014;8.540;2022-10-13T07:44:38;100383.63;;;10.42;79.60
2188;BME280;1100;52.014;8.540;2022-10-13T07:47:03;100388.19;;;10.52;79.57
2188;BME280;1100;52.014;8.540;2022-10-13T07:49:28;100393.94;;;10.62;79.29
2188;BME280;1100;52.014;8.540;2022-10-13T07:51:53;100383.81;;;10.71;79.33
2188;BME280;1100;52.014;8.540;2022-10-13T07:54:19;100386.34;;;10.82;79.30
2188;BME280;1100;52.014;8.540;2022-10-13T07:56:44;100383.28;;;10.93;79.40
2188;BME280;1100;52.014;8.540;2022-10-13T07:59:10;100388.16;;;11.06;79.19
2188;BME280;1100;52.014;8.540;2022-10-13T08:01:37;100395.09;;;11.14;79.31
2188;BME280;1100;52.014;8.540;2022-10-13T08:04:03;100398.81;;;11.24;79.32
2188;BME280;1100;52.014;8.540;2022-10-13T08:06:28;100394.66;;;11.32;79.08
2188;BME280;1100;52.014;8.540;2022-10-13T08:08:53;100393.22;;;11.41;79.02
2188;BME280;1100;52.014;8.540;2022-10-13T08:11:19;100398.63;;;11.48;79.06
2188;BME280;1100;52.014;8.540;2022-10-13T08:13:49;100391.63;;;11.56;78.99
2188;BME280;1100;52.014;8.540;2022-10-13T08:16:15;100390.22;;;11.65;78.87
2188;BME280;1100;52.014;8.540;2022-10-13T08:18:41;100388.09;;;11.69;78.89
2188;BME280;1100;52.014;8.540;2022-10-13T08:21:08;100385.59;;;11.75;78.83
2188;BME280;1100;52.014;8.540;2022-10-13T08:23:36;100387.94;;;11.76;78.60
2188;BME280;1100;52.014;8.540;2022-10-13T08:26:02;100386.69;;;11.77;78.84
2188;BME280;1100;52.014;8.540;2022-10-13T08:28:27;100384.25;;;11.79;78.75
2188;BME280;1100;52.014;8.540;2022-10-13T08:30:54;100391.38;;;11.80;78.56
2188;BME280;1100;52.014;8.540;2022-10-13T08:33:24;100389.84;;;11.79;78.53
2188;BME280;1100;52.014;8.540;2022-10-13T08:35:51;100396.44;;;11.86;78.65
2188;BME280;1100;52.014;8.540;2022-10-13T08:38:17;100393.78;;;11.95;78.63
2188;BME280;1100;52.014;8.540;2022-10-13T08:40:49;100392.69;;;12.05;78.79
2188;BME280;1100;52.014;8.540;2022-10-13T08:43:18;100397.81;;;12.07;78.37
2188;BME280;1100;52.014;8.540;2022-10-13T08:45:44;100392.19;;;12.11;78.54
2188;BME280;1100;52.014;8.540;2022-10-13T08:48:38;100390.50;;;12.13;78.36
2188;BME280;1100;52.014;8.540;2022-10-13T08:51:06;100395.75;;;12.11;78.57
2188;BME280;1100;52.014;8.540;2022-10-13T08:53:40;100399.22;;;12.15;78.61
2188;BME280;1100;52.014;8.540;2022-10-13T08:56:09;100387.97;;;12.19;78.51
2188;BME280;1100;52.014;8.540;2022-10-13T08:58:39;100387.88;;;12.36;78.44
2188;BME280;1100;52.014;8.540;2022-10-13T09:01:18;100391.00;;;12.51;78.36
2188;BME280;1100;52.014;8.540;2022-10-13T09:09:01;100395.66;;;12.93;78.06
2188;BME280;1100;52.014;8.540;2022-10-13T09:11:32;100400.78;;;12.94;77.88
2188;BME280;1100;52.014;8.540;2022-10-13T09:14:00;100399.56;;;12.95;77.99
2188;BME280;1100;52.014;8.540;2022-10-13T09:16:36;100398.13;;;12.91;77.88
2188;BME280;1100;52.014;8.540;2022-10-13T09:21:48;100398.22;;;12.87;77.63
2188;BME280;1100;52.014;8.540;2022-10-13T09:24:16;100393.75;;;12.90;77.92
2188;BME280;1100;52.014;8.540;2022-10-13T09:26:43;100392.53;;;12.91;77.72
2188;BME280;1100;52.014;8.540;2022-10-13T09:29:18;100390.06;;;12.93;77.83
2188;BME280;1100;52.014;8.540;2022-10-13T09:31:44;100385.16;;;12.97;77.65
2188;BME280;1100;52.014;8.540;2022-10-13T09:39:21;100381.78;;;13.02;77.44
2188;BME280;1100;52.014;8.540;2022-10-13T09:41:47;100379.34;;;13.04;77.31
2188;BME280;1100;52.014;8.540;2022-10-13T09:44:13;100377.66;;;13.07;77.48
2188;BME280;1100;52.014;8.540;2022-10-13T09:46:48;100372.41;;;13.09;77.49
2188;BME280;1100;52.014;8.540;2022-10-13T09:49:37;100368.63;;;13.16;77.79
2188;BME280;1100;52.014;8.540;2022-10-13T09:59:43;100365.38;;;13.17;77.29
2188;BME280;1100;52.014;8.540;2022-10-13T10:02:18;100362.25;;;13.15;77.24
2188;BME280;1100;52.014;8.540;2022-10-13T10:04:45;100367.38;;;13.17;77.34
2188;BME280;1100;52.014;8.540;2022-10-13T10:07:16;100365.22;;;13.21;77.15
2188;BME280;1100;52.014;8.540;2022-10-13T10:09:47;100370.69;;;13.25;77.46
2188;BME280;1100;52.014;8.540;2022-10-13T10:12:20;100363.66;;;13.33;77.19
2188;BME280;1100;52.014;8.540;2022-10-13T10:14:47;100362.94;;;13.42;77.22
2188;BME280;1100;52.014;8.540;2022-10-13T10:17:37;100347.94;;;13.49;77.10
2188;BME280;1100;52.014;8.540;2022-10-13T10:20:40;100347.41;;;13.54;77.15
2188;BME280;1100;52.014;8.540;2022-10-13T10:23:16;100342.00;;;13.60;76.92
2188;BME280;1100;52.014;8.540;2022-10-13T10:25:49;100339.28;;;13.69;77.14
2188;BME280;1100;52.014;8.540;2022-10-13T10:33:49;100328.56;;;13.90;76.70
2188;BME280;1100;52.014;8.540;2022-10-13T10:36:23;100336.78;;;13.93;76.49
2188;BME280;1100;52.014;8.540;2022-10-13T10:38:58;100339.44;;;13.97;76.36
2188;BME280;1100;52.014;8.540;2022-10-13T10:44:40;100340.88;;;14.02;76.61
2188;BME280;1100;52.014;8.540;2022-10-13T10:47:19;100336.06;;;14.02;76.10
2188;BME280;1100;52.014;8.540;2022-10-13T10:49:47;100338.88;;;14.02;76.33
2188;BME280;1100;52.014;8.540;2022-10-13T10:52:23;100326.13;;;14.01;75.67
2188;BME280;1100;52.014;8.540;2022-10-13T11:00:42;100312.81;;;14.05;75.87
2188;BME280;1100;52.014;8.540;2022-10-13T11:06:21;100309.88;;;14.18;76.05
2188;BME280;1100;52.014;8.540;2022-10-13T11:08:47;100304.50;;;14.24;75.78
2188;BME280;1100;52.014;8.540;2022-10-13T11:13:51;100291.72;;;14.23;75.40
2188;BME280;1100;52.014;8.540;2022-10-13T11:21:24;100285.13;;;14.39;75.63
2188;BME280;1100;52.014;8.540;2022-10-13T11:23:49;100284.06;;;14.46;75.51
2188;BME280;1100;52.014;8.540;2022-10-13T11:28:45;100275.81;;;14.52;75.42
2188;BME280;1100;52.014;8.540;2022-10-13T11:44:50;100266.34;;;14.40;75.21
2188;BME280;1100;52.014;8.540;2022-10-13T11:47:39;100273.47;;;14.41;75.06
2188;BME280;1100;52.014;8.540;2022-10-13T11:55:42;100248.34;;;14.60;75.12
2188;BME280;1100;52.014;8.540;2022-10-13T12:01:00;100254.88;;;14.75;74.91
2188;BME280;1100;52.014;8.540;2022-10-13T12:05:55;100246.06;;;14.86;74.89
2188;BME280;1100;52.014;8.540;2022-10-13T12:08:22;100239.06;;;14.91;74.87
2188;BME280;1100;52.014;8.540;2022-10-13T12:10:51;100238.94;;;14.94;74.65
2188;BME280;1100;52.014;8.540;2022-10-13T12:13:23;100240.78;;;14.98;74.72
2188;BME280;1100;52.014;8.540;2022-10-13T12:15:56;100244.38;;;14.98;74.46
2188;BME280;1100;52.014;8.540;2022-10-13T12:18:29;100240.31;;;14.99;74.66
2188;BME280;1100;52.014;8.540;2022-10-13T12:21:00;100236.13;;;15.04;74.57
2188;BME280;1100;52.014;8.540;2022-10-13T12:23:29;100232.72;;;15.09;74.62
2188;BME280;1100;52.014;8.540;2022-10-13T12:25:55;100238.13;;;15.13;74.43
2188;BME280;1100;52.014;8.540;2022-10-13T12:28:24;100243.72;;;15.13;74.36
2188;BME280;1100;52.014;8.540;2022-10-13T12:30:58;100241.72;;;15.13;74.25
2188;BME280;1100;52.014;8.540;2022-10-13T12:33:33;100240.00;;;15.16;74.38
2188;BME280;1100;52.014;8.540;2022-10-13T12:36:16;100235.66;;;15.15;74.41
2188;BME280;1100;52.014;8.540;2022-10-13T12:38:48;100238.13;;;15.13;74.46
2188;BME280;1100;52.014;8.540;2022-10-13T12:41:25;100237.19;;;15.16;74.30
2188;BME280;1100;52.014;8.540;2022-10-13T12:43:52;100226.31;;;15.18;74.00
2188;BME280;1100;52.014;8.540;2022-10-13T12:49:15;100221.66;;;15.05;73.90
2188;BME280;1100;52.014;8.540;2022-10-13T12:51:43;100230.84;;;14.97;74.12
2188;BME280;1100;52.014;8.540;2022-10-13T12:54:26;100222.44;;;14.87;74.15
2188;BME280;1100;52.014;8.540;2022-10-13T12:56:56;100218.53;;;14.85;74.45
2188;BME280;1100;52.014;8.540;2022-10-13T12:59:23;100218.88;;;14.87;74.35
2188;BME280;1100;52.014;8.540;2022-10-13T13:02:12;100222.91;;;14.86;74.22
2188;BME280;1100;52.014;8.540;2022-10-13T13:04:43;100224.13;;;14.85;74.30
2188;BME280;1100;52.014;8.540;2022-10-13T13:07:37;100222.91;;;14.86;74.21
2188;BME280;1100;52.014;8.540;2022-10-13T13:12:31;100218.88;;;14.96;74.62
2188;BME280;1100;52.014;8.540;2022-10-13T13:14:56;100215.44;;;15.01;74.59
2188;BME280;1100;52.014;8.540;2022-10-13T13:17:25;100214.50;;;15.04;74.49
2188;BME280;1100;52.014;8.540;2022-10-13T13:19:52;100213.56;;;15.07;74.51
2188;BME280;1100;52.014;8.540;2022-10-13T13:22:18;100212.31;;;15.09;74.26
2188;BME280;1100;52.014;8.540;2022-10-13T13:24:44;100210.47;;;15.05;74.31
2188;BME280;1100;52.014;8.540;2022-10-13T13:27:15;100212.47;;;15.05;74.30
2188;BME280;1100;52.014;8.540;2022-10-13T13:29:41;100208.13;;;15.04;74.22
2188;BME280;1100;52.014;8.540;2022-10-13T13:32:10;100209.53;;;15.09;74.49
2188;BME280;1100;52.014;8.540;2022-10-13T13:34:36;100204.06;;;15.14;74.48
2188;BME280;1100;52.014;8.540;2022-10-13T13:37:01;100204.22;;;15.20;74.62
2188;BME280;1100;52.014;8.540;2022-10-13T13:39:26;100197.38;;;15.21;74.34
2188;BME280;1100;52.014;8.540;2022-10-13T13:41:52;100195.19;;;15.25;74.39
2188;BME280;1100;52.014;8.540;2022-10-13T13:44:17;100199.84;;;15.28;74.35
2188;BME280;1100;52.014;8.540;2022-10-13T13:46:42;100190.81;;;15.34;74.37
2188;BME280;1100;52.014;8.540;2022-10-13T13:49:09;100197.50;;;15.36;74.35
2188;BME280;1100;52.014;8.540;2022-10-13T13:51:35;100197.81;;;15.38;74.12
2188;BME280;1100;52.014;8.540;2022-10-13T13:54:01;100203.41;;;15.38;74.07
2188;BME280;1100;52.014;8.540;2022-10-13T13:56:26;100196.56;;;15.39;74.23
2188;BME280;1100;52.014;8.540;2022-10-13T13:58:51;100191.25;;;15.41;73.79
2188;BME280;1100;52.014;8.540;2022-10-13T14:01:17;100196.06;;;15.41;73.85
2188;BME280;1100;52.014;8.540;2022-10-13T14:03:42;100201.41;;;15.39;74.08
2188;BME280;1100;52.014;8.540;2022-10-13T14:06:15;100193.75;;;15.39;74.08
2188;BME280;1100;52.014;8.540;2022-10-13T14:08:41;100188.34;;;15.36;73.60
2188;BME280;1100;52.014;8.540;2022-10-13T14:11:07;100194.69;;;15.36;73.88
2188;BME280;1100;52.014;8.540;2022-10-13T14:13:33;100186.16;;;15.30;73.84
2188;BME280;1100;52.014;8.540;2022-10-13T14:16:00;100186.03;;;15.25;73.71
2188;BME280;1100;52.014;8.540;2022-10-13T14:18:26;100193.31;;;15.22;73.57
2188;BME280;1100;52.014;8.540;2022-10-13T14:20:52;100190.22;;;15.20;73.81
2188;BME280;1100;52.014;8.540;2022-10-13T14:23:17;100182.31;;;15.18;73.88
2188;BME280;1100;52.014;8.540;2022-10-13T14:25:43;100179.97;;;15.17;73.78
2188;BME280;1100;52.014;8.540;2022-10-13T14:28:08;100175.59;;;15.16;73.64
2188;BME280;1100;52.014;8.540;2022-10-13T14:30:34;100175.59;;;15.16;73.53
2188;BME280;1100;52.014;8.540;2022-10-13T14:33:02;100177.31;;;15.13;73.64
2188;BME280;1100;52.014;8.540;2022-10-13T14:35:29;100179.06;;;15.11;73.38
2188;BME280;1100;52.014;8.540;2022-10-13T14:37:54;100177.19;;;15.07;73.29
2188;BME280;1100;52.014;8.540;2022-10-13T14:40:19;100177.81;;;15.02;73.25
2188;BME280;1100;52.014;8.540;2022-10-13T14:42:45;100173.16;;;14.99;72.99
2188;BME280;1100;52.014;8.540;2022-10-13T14:45:10;100174.56;;;14.94;73.01
2188;BME280;1100;52.014;8.540;2022-10-13T14:47:37;100182.50;;;14.87;73.23
2188;BME280;1100;52.014;8.540;2022-10-13T14:50:02;100176.88;;;14.77;73.42
2188;BME280;1100;52.014;8.540;2022-10-13T14:52:28;100176.41;;;14.69;73.38
2188;BME280;1100;52.014;8.540;2022-10-13T14:54:53;100181.53;;;14.62;73.30
2188;BME280;1100;52.014;8.540;2022-10-13T14:57:18;100181.06;;;14.54;73.49
2188;BME280;1100;52.014;8.540;2022-10-13T14:59:45;100176.84;;;14.49;73.32
2188;BME280;1100;52.014;8.540;2022-10-13T15:02:11;100172.50;;;14.48;73.61
2188;BME280;1100;52.014;8.540;2022-10-13T15:04:37;100176.53;;;14.47;73.55
2188;BME280;1100;52.014;8.540;2022-10-13T15:07:02;100172.94;;;14.47;73.76
2188;BME280;1100;52.014;8.540;2022-10-13T15:09:27;100179.47;;;14.43;73.37